Ignacio Pérez

Recruteur - Gijón
14 Oct 2027
Jeudi
Processus

Personnalité

Adaptabilité (11) Ambition (15) Controverse (2) Loyauté (15) Pression (13) Professionnalisme (5) Sportivité (3) Tempérament (14)

Profil

Style d'entraînement Démocratique
Diplôme Continental A
Détermination 11
Gestion des joueurs 7
Motivation 11
Discipline 13
Satisfaction professionnelle
100%
Fatigue
0%
Rôle Recruteur
Salaire 84.7K p/s
Contrat 14.03.2028

Performance

Comportement Bon
Efficacité de l'entraînement
44%
Développement des joueurs
30%
Prévention des blessures
65%
Mise en place tactique
40%

Événements récents

A participé à une réunion de recrutement 7j
A participé à une réunion de recrutement 14j
A observé un match 14j
A observé un match 14j
A observé un match 14j
A observé un match 21j
A observé un match 21j
A observé un match 21j

Suivi en cours

47
Joueur Club Statut Capacité Confiance Observé Dernière observation Dernier vote
Lucas Alcázar Castellón Actif 131 / 129 55% 1 01.06.2027 -
Christos Mouzakitis Hull City Actif 133 / 135 40% 1 29.05.2027 -
Kazunari Kita Real Sociedad Actif 106 / 114 40% 1 29.05.2027 -
Jofre Torrents Ajax Actif 122 / 137 40% 2 28.05.2027 -
Davide Bartesaghi AC Milan Actif 141 / 141 40% 2 28.05.2027 -
Joel McGregor Swindon Town Actif 101 / 108 40% 2 26.05.2027 -
Leandro Martins Benfica Actif 97 / 100 40% 1 23.05.2027 -
Percy Jali Free State Stars Actif 92 / 89 40% 1 23.05.2027 -
Kevin Vazquez Cruz Azul Actif 124 / 143 40% 3 22.05.2027 -
Bernardo Lima Porto Actif 92 / 106 40% 1 22.05.2027 -
Diego Lainez Tigres Actif 140 / 144 40% 4 21.05.2027 -
Ali Ahmed Norwich City Actif 133 / 131 40% 1 20.05.2027 -
Daniel Vernattus Metalist Actif 89 / 95 40% 1 19.05.2027 -
Jack Rudoni Coventry City Actif 140 / 138 40% 2 18.05.2027 -
Pablo Torre Mallorca Actif 155 / 133 40% 1 18.05.2027 -
Aimar Osasuna Actif 143 / 141 40% 6 17.05.2027 -
Erick Sánchez OGC Nice Actif 152 / 146 40% 2 16.05.2027 -
Morgan Whittaker Middlesbrough Actif 123 / 120 40% 3 16.05.2027 -
Andrés Martín Racing Santander Actif 138 / 131 40% 4 15.05.2027 -
David Larrubia Málaga Actif 140 / 125 40% 1 15.05.2027 -
José Pachuca Puebla Actif 106 / 96 40% 2 13.05.2027 -
Josh King Chelsea Actif 128 / 141 40% 1 13.05.2027 -
Tyrhys Dolan Espanyol Actif 146 / 148 40% 2 10.05.2027 -
Ozziel Herrera Tigres Actif 133 / 136 40% 2 07.05.2027 -
Marcel Ruiz RC Lens Actif 135 / 147 40% 2 03.05.2027 -
Jack McGlynn Stoke City Actif 137 / 123 40% 1 03.05.2027 -
Abel Ruiz Girona Actif 135 / 134 40% 1 02.05.2027 -
Khalis Merah Toulouse FC Actif 132 / 124 40% 3 30.04.2027 -
João Teixeira Porto Actif 118 / 126 40% 2 27.04.2027 -
Fran García Betis Actif 156 / 154 40% 1 26.04.2027 -
Ez Abde Girona Actif 159 / 146 40% 1 23.04.2027 -
Jonathan Dubasin Osasuna Actif 132 / 147 40% 1 21.04.2027 -
Noah Nartey Olympique Lyonnais Actif 123 / 129 40% 1 18.04.2027 -
Christ Inao Oulaï Fiorentina Actif 133 / 143 40% 2 14.04.2027 -
Lucas Høgsberg RC Strasbourg Actif 137 / 131 40% 1 14.04.2027 -
Keagan Tau Ajax Cape Town Actif 79 / 111 40% 1 09.04.2027 -
Giacomo Raspadori Atalanta Actif 153 / 146 40% 1 08.04.2027 -
Carlos Vicente Birmingham Actif 152 / 135 40% 1 06.04.2027 -
Jon Garro Real Sociedad Actif 92 / 87 40% 2 01.04.2027 -
Matías Gómez Granada Actif 102 / 114 40% 1 30.03.2027 -
Yusi Alavés Actif 120 / 120 40% 1 21.03.2027 -
Ernie Weaver AFC Wimbledon Actif 114 / 113 40% 1 21.03.2027 -
David Ozoh Derby County Actif 120 / 135 40% 1 19.03.2027 -
Toni Tamarit Alverca Actif 124 / 110 40% 1 19.03.2027 -
Cemran Dansin Orlando Pirates Actif 96 / 100 40% 1 18.03.2027 -
Caleb Yirenkyi Coventry City Actif 131 / 150 40% 1 18.03.2027 -
Richard Ledezma Guadalajara Actif 137 / 150 40% 1 17.03.2027 -